createdAt,value
2016-12-09T00:00:00.493Z,0
2016-12-09T00:01:31.537Z,0
2016-12-09T00:03:03.977Z,0
2016-12-09T00:04:35.548Z,0
2016-12-09T00:06:07.114Z,0
2016-12-09T00:07:39.117Z,0
2016-12-09T00:08:51.746Z,0
2016-12-09T00:10:24.211Z,0
2016-12-09T00:11:55.512Z,0
2016-12-09T00:13:27.149Z,0
2016-12-09T00:14:58.011Z,0
2016-12-09T00:16:28.674Z,0
2016-12-09T00:18:02.137Z,0
2016-12-09T00:19:36.210Z,0
2016-12-09T00:21:06.972Z,0
2016-12-09T00:22:38.350Z,0
2016-12-09T00:23:50.252Z,0
2016-12-09T00:25:21.772Z,0
2016-12-09T00:26:53.577Z,0
2016-12-09T00:28:25.291Z,0
2016-12-09T00:29:51.132Z,0
2016-12-09T00:31:04.109Z,0
2016-12-09T00:32:35.980Z,0
2016-12-09T00:34:08.127Z,0
2016-12-09T00:35:39.951Z,0
2016-12-09T00:37:11.444Z,0
2016-12-09T00:38:42.906Z,0
2016-12-09T00:40:14.382Z,0
2016-12-09T00:41:27.171Z,0
2016-12-09T00:42:59.146Z,0
2016-12-09T00:44:30.578Z,0
2016-12-09T00:46:01.822Z,0
2016-12-09T00:47:33.323Z,0
2016-12-09T00:49:05.509Z,0
2016-12-09T00:50:37.918Z,0
2016-12-09T00:52:10.914Z,0
2016-12-09T00:53:43.926Z,0
2016-12-09T00:55:16.041Z,0
2016-12-09T00:56:47.173Z,0
2016-12-09T00:58:19.915Z,0
2016-12-09T00:59:31.764Z,0
2016-12-09T01:01:05.368Z,0
2016-12-09T01:02:36.707Z,0
2016-12-09T01:04:32.186Z,0
2016-12-09T01:07:48.388Z,0
2016-12-09T01:09:15.976Z,0
2016-12-09T01:10:47.111Z,0
2016-12-09T01:12:18.455Z,0
2016-12-09T01:13:49.794Z,0
2016-12-09T01:15:02.420Z,0
2016-12-09T01:18:31.630Z,0
2016-12-09T01:20:03.016Z,0
2016-12-09T01:21:34.006Z,0
2016-12-09T01:22:46.586Z,0
2016-12-09T01:24:17.743Z,0
2016-12-09T01:25:49.179Z,0
2016-12-09T01:27:20.100Z,0
2016-12-09T01:28:50.977Z,0
2016-12-09T01:30:22.197Z,0
2016-12-09T01:31:53.862Z,0
2016-12-09T01:33:05.987Z,0
2016-12-09T01:34:36.984Z,0
2016-12-09T01:36:07.954Z,0
2016-12-09T01:37:39.661Z,0
2016-12-09T01:39:10.604Z,0
2016-12-09T01:40:41.645Z,0
2016-12-09T01:41:53.316Z,0
2016-12-09T01:43:25.179Z,0
2016-12-09T01:44:56.147Z,0
2016-12-09T01:46:27.107Z,0
2016-12-09T01:47:58.321Z,0
2016-12-09T01:49:29.183Z,0
2016-12-09T01:50:40.886Z,0
2016-12-09T01:52:11.856Z,0
2016-12-09T01:53:43.143Z,0
2016-12-09T01:55:14.568Z,0
2016-12-09T01:56:45.271Z,0
2016-12-09T01:58:16.140Z,0
2016-12-09T01:59:27.871Z,0
2016-12-09T02:00:59.265Z,0
2016-12-09T02:02:30.536Z,0
2016-12-09T02:04:01.395Z,0
2016-12-09T02:05:32.578Z,0
2016-12-09T02:07:03.590Z,0
2016-12-09T02:08:15.299Z,0
2016-12-09T02:09:46.368Z,0
2016-12-09T02:11:17.240Z,0
2016-12-09T02:12:48.478Z,0
2016-12-09T02:14:19.435Z,0
2016-12-09T02:15:45.479Z,0
2016-12-09T02:16:57.149Z,0
2016-12-09T02:18:29.930Z,0
2016-12-09T02:20:00.878Z,0
2016-12-09T02:21:32.736Z,0
2016-12-09T02:23:04.199Z,0
2016-12-09T02:24:15.906Z,0
2016-12-09T02:25:47.295Z,0
2016-12-09T02:27:18.705Z,0
2016-12-09T02:28:49.736Z,0
2016-12-09T02:30:21.247Z,0
2016-12-09T02:31:52.409Z,0
2016-12-09T02:33:24.104Z,0
2016-12-09T02:34:35.802Z,0
2016-12-09T02:36:07.413Z,0
2016-12-09T02:37:38.644Z,0
2016-12-09T02:39:09.520Z,0
2016-12-09T02:40:40.788Z,0
2016-12-09T02:42:12.293Z,0
2016-12-09T02:43:43.541Z,0
2016-12-09T02:44:55.221Z,0
2016-12-09T02:46:26.155Z,0
2016-12-09T02:47:57.963Z,0
2016-12-09T02:49:31.841Z,0
2016-12-09T02:51:03.111Z,0
2016-12-09T02:52:29.118Z,0
2016-12-09T02:53:40.854Z,0
2016-12-09T02:55:06.912Z,0
2016-12-09T02:56:18.358Z,0
2016-12-09T02:57:49.636Z,0
2016-12-09T02:59:20.958Z,0
2016-12-09T03:00:51.931Z,0
2016-12-09T03:02:23.137Z,0
2016-12-09T03:03:54.307Z,0
2016-12-09T03:05:25.219Z,0
2016-12-09T03:06:37.281Z,0
2016-12-09T03:08:08.220Z,0
2016-12-09T03:09:39.431Z,0
2016-12-09T03:11:10.341Z,0
2016-12-09T03:12:22.920Z,0
2016-12-09T03:13:49.400Z,0
2016-12-09T03:15:20.603Z,0
2016-12-09T03:16:51.874Z,0
2016-12-09T03:18:03.657Z,0
2016-12-09T03:19:34.511Z,0
2016-12-09T03:21:05.787Z,0
2016-12-09T03:22:37.452Z,0
2016-12-09T03:24:08.604Z,0
2016-12-09T03:25:34.546Z,0
2016-12-09T03:26:46.212Z,0
2016-12-09T03:28:17.365Z,0
2016-12-09T03:29:48.535Z,0
2016-12-09T03:31:19.697Z,0
2016-12-09T03:32:31.443Z,0
2016-12-09T03:34:02.551Z,0
2016-12-09T03:35:33.651Z,0
2016-12-09T03:37:05.645Z,0
2016-12-09T03:38:36.811Z,0
2016-12-09T03:40:08.282Z,0
2016-12-09T03:41:39.402Z,0
2016-12-09T03:42:51.447Z,0
2016-12-09T03:44:22.336Z,0
2016-12-09T03:45:53.472Z,0
2016-12-09T03:47:25.334Z,0
2016-12-09T03:48:56.242Z,0
2016-12-09T03:50:22.624Z,0
2016-12-09T03:51:34.675Z,0
2016-12-09T03:53:05.394Z,0
2016-12-09T03:54:36.923Z,0
2016-12-09T03:56:08.309Z,0
2016-12-09T03:57:20.064Z,0
2016-12-09T03:58:51.081Z,0
2016-12-09T04:00:22.578Z,0
2016-12-09T04:01:54.081Z,0
2016-12-09T04:03:25.310Z,0
2016-12-09T04:04:56.332Z,0
2016-12-09T04:06:28.123Z,0
2016-12-09T04:08:02.734Z,0
2016-12-09T04:09:33.683Z,0
2016-12-09T04:11:06.370Z,0
2016-12-09T04:12:18.678Z,0
2016-12-09T04:13:49.864Z,0
2016-12-09T04:15:22.835Z,0
2016-12-09T04:16:54.599Z,0
2016-12-09T04:18:25.689Z,0
2016-12-09T04:23:10.130Z,0
2016-12-09T04:24:42.794Z,0
2016-12-09T04:26:10.098Z,0
2016-12-09T04:27:41.604Z,0
2016-12-09T04:28:53.891Z,0
2016-12-09T04:30:24.820Z,0
2016-12-09T04:31:55.729Z,0
2016-12-09T04:33:27.308Z,0
2016-12-09T04:34:58.451Z,0
2016-12-09T04:36:37.871Z,0
2016-12-09T04:38:34.358Z,0
2016-12-09T04:40:09.078Z,0
2016-12-09T04:41:43.574Z,0
2016-12-09T04:43:42.296Z,0
2016-12-09T04:45:17.518Z,0
2016-12-09T04:46:58.074Z,0
2016-12-09T04:48:54.814Z,0
2016-12-09T04:50:30.878Z,0
2016-12-09T04:52:07.802Z,0
2016-12-09T04:53:39.985Z,0
2016-12-09T04:55:11.237Z,0
2016-12-09T04:58:15.504Z,0
2016-12-09T04:59:48.687Z,0
2016-12-09T05:01:22.586Z,0
2016-12-09T05:02:54.084Z,0
2016-12-09T05:04:26.450Z,0
2016-12-09T05:05:57.519Z,0
2016-12-09T05:07:28.724Z,0
2016-12-09T05:08:40.517Z,0
2016-12-09T05:10:11.409Z,0
2016-12-09T05:11:43.027Z,0
2016-12-09T05:13:15.627Z,0
2016-12-09T05:14:48.360Z,0
2016-12-09T05:16:19.657Z,0
2016-12-09T05:17:50.976Z,0
2016-12-09T05:19:21.958Z,0
2016-12-09T05:20:33.971Z,0
2016-12-09T05:22:05.286Z,0
2016-12-09T05:23:36.520Z,0
2016-12-09T05:25:07.523Z,0
2016-12-09T05:26:38.753Z,0
2016-12-09T05:28:10.039Z,0
2016-12-09T05:29:41.535Z,0
2016-12-09T05:30:53.735Z,0
2016-12-09T05:32:24.967Z,0
2016-12-09T05:33:56.662Z,0
2016-12-09T05:35:28.588Z,0
2016-12-09T05:36:59.835Z,0
2016-12-09T05:38:31.789Z,0
2016-12-09T05:40:03.534Z,0
2016-12-09T05:41:34.983Z,0
2016-12-09T05:42:47.193Z,0
2016-12-09T05:44:18.946Z,0
2016-12-09T05:45:50.677Z,0
2016-12-09T05:47:22.084Z,0
2016-12-09T05:48:54.653Z,0
2016-12-09T05:50:28.027Z,0
2016-12-09T05:51:59.507Z,0
2016-12-09T05:53:31.081Z,0
2016-12-09T05:55:05.178Z,0
2016-12-09T05:56:38.471Z,0
2016-12-09T05:58:11.911Z,0
2016-12-09T05:59:44.329Z,0
2016-12-09T06:01:15.291Z,0
2016-12-09T06:02:46.227Z,0
2016-12-09T06:03:57.926Z,0
2016-12-09T06:05:29.388Z,0
2016-12-09T06:07:00.366Z,0
2016-12-09T06:08:31.367Z,0
2016-12-09T06:10:02.846Z,0
2016-12-09T06:11:33.809Z,0
2016-12-09T06:12:45.582Z,0
2016-12-09T06:14:16.447Z,0
2016-12-09T06:15:47.321Z,0
2016-12-09T06:17:19.221Z,0
2016-12-09T06:18:50.268Z,0
2016-12-09T06:20:21.176Z,0
2016-12-09T06:21:33.032Z,0
2016-12-09T06:23:04.481Z,0
2016-12-09T06:24:35.404Z,0
2016-12-09T06:26:06.648Z,0
2016-12-09T06:27:38.029Z,0
2016-12-09T06:29:08.903Z,0
2016-12-09T06:30:40.124Z,0
2016-12-09T06:31:51.844Z,0
2016-12-09T06:33:22.733Z,0
2016-12-09T06:34:54.061Z,0
2016-12-09T06:36:25.128Z,0
2016-12-09T06:37:56.276Z,0
2016-12-09T06:39:27.764Z,0
2016-12-09T06:40:39.487Z,0
2016-12-09T06:42:10.659Z,0
2016-12-09T06:43:42.292Z,0
2016-12-09T06:45:13.550Z,4
2016-12-09T06:46:39.596Z,0
2016-12-09T06:47:51.363Z,0
2016-12-09T06:49:22.379Z,4
2016-12-09T06:50:53.506Z,0
2016-12-09T06:52:24.435Z,4
2016-12-09T06:53:55.327Z,4
2016-12-09T06:55:07.149Z,8
2016-12-09T06:56:38.329Z,8
2016-12-09T06:58:09.810Z,12
2016-12-09T06:59:40.711Z,16
2016-12-09T07:01:11.440Z,16
2016-12-09T07:02:42.734Z,24
2016-12-09T07:03:54.956Z,28
2016-12-09T07:05:25.980Z,28
2016-12-09T07:06:57.813Z,32
2016-12-09T07:08:29.056Z,40
2016-12-09T07:10:00.271Z,52
2016-12-09T07:11:31.407Z,56
2016-12-09T07:13:02.605Z,60
2016-12-09T07:14:14.601Z,60
2016-12-09T07:15:45.870Z,64
2016-12-09T07:17:17.189Z,68
2016-12-09T07:18:48.412Z,80
2016-12-09T07:20:20.021Z,92
2016-12-09T07:21:50.970Z,92
2016-12-09T07:23:21.923Z,96
2016-12-09T07:24:33.835Z,104
2016-12-09T07:26:07.234Z,124
2016-12-09T07:27:38.414Z,140
2016-12-09T07:29:04.675Z,160
2016-12-09T07:30:35.492Z,168
2016-12-09T07:31:47.611Z,184
2016-12-09T07:33:18.750Z,184
2016-12-09T07:34:49.981Z,192
2016-12-09T07:36:20.802Z,188
2016-12-09T07:37:52.417Z,188
2016-12-09T07:39:23.405Z,196
2016-12-09T07:40:35.783Z,196
2016-12-09T07:42:02.226Z,216
2016-12-09T07:43:32.984Z,228
2016-12-09T07:45:03.953Z,244
2016-12-09T07:46:15.982Z,284
2016-12-09T07:47:47.073Z,332
2016-12-09T07:49:18.720Z,360
2016-12-09T07:50:50.223Z,396
2016-12-09T07:52:21.037Z,412
2016-12-09T07:53:52.330Z,408
2016-12-09T07:55:03.995Z,400
2016-12-09T07:56:34.872Z,396
2016-12-09T07:58:06.437Z,396
2016-12-09T07:59:37.439Z,404
2016-12-09T08:01:08.617Z,424
2016-12-09T08:02:40.012Z,416
2016-12-09T08:04:10.969Z,424
2016-12-09T08:05:22.982Z,404
2016-12-09T08:06:54.028Z,408
2016-12-09T08:08:25.288Z,420
2016-12-09T08:09:56.821Z,400
2016-12-09T08:11:27.785Z,392
2016-12-09T08:12:58.950Z,420
2016-12-09T08:14:10.689Z,444
2016-12-09T08:15:42.337Z,452
2016-12-09T08:17:13.619Z,436
2016-12-09T08:18:44.496Z,412
2016-12-09T08:20:10.585Z,400
2016-12-09T08:21:22.272Z,436
2016-12-09T08:22:53.602Z,436
2016-12-09T08:24:25.083Z,408
2016-12-09T08:25:56.426Z,428
2016-12-09T08:27:27.900Z,440
2016-12-09T08:28:58.806Z,484
2016-12-09T08:30:10.832Z,480
2016-12-09T08:31:41.973Z,540
2016-12-09T08:33:12.838Z,564
2016-12-09T08:34:44.461Z,636
2016-12-09T08:36:15.842Z,668
2016-12-09T08:37:46.903Z,660
2016-12-09T08:38:58.697Z,820
2016-12-09T08:40:25.773Z,848
2016-12-09T08:41:57.546Z,904
2016-12-09T08:43:28.884Z,884
2016-12-09T08:45:00.189Z,968
2016-12-09T08:46:12.657Z,984
2016-12-09T08:47:44.263Z,1008
2016-12-09T08:49:15.734Z,948
2016-12-09T08:50:46.717Z,1012
2016-12-09T08:52:17.977Z,852
2016-12-09T08:53:49.192Z,768
2016-12-09T08:55:20.373Z,720
2016-12-09T08:56:53.670Z,732
2016-12-09T08:58:05.667Z,692
2016-12-09T08:59:37.152Z,712
2016-12-09T09:01:09.479Z,796
2016-12-09T09:02:40.669Z,792
2016-12-09T09:04:11.708Z,816
2016-12-09T09:05:42.937Z,824
2016-12-09T09:07:13.866Z,756
2016-12-09T09:08:25.880Z,664
2016-12-09T09:09:56.836Z,688
2016-12-09T09:11:27.821Z,760
2016-12-09T09:12:59.274Z,812
2016-12-09T09:14:10.773Z,800
2016-12-09T09:15:41.792Z,776
2016-12-09T09:17:13.088Z,772
2016-12-09T09:18:44.508Z,800
2016-12-09T09:20:15.679Z,864
2016-12-09T09:21:46.677Z,844
2016-12-09T09:23:17.909Z,792
2016-12-09T09:24:30.840Z,812
2016-12-09T09:26:02.378Z,964
2016-12-09T09:27:33.333Z,1084
2016-12-09T09:29:04.257Z,1136
2016-12-09T09:30:37.145Z,1020
2016-12-09T09:32:08.167Z,896
2016-12-09T09:33:39.837Z,952
2016-12-09T09:35:11.378Z,964
2016-12-09T09:36:23.353Z,880
2016-12-09T09:37:54.335Z,832
2016-12-09T09:39:25.419Z,856
2016-12-09T09:40:56.301Z,876
2016-12-09T09:42:27.623Z,892
2016-12-09T09:43:58.560Z,1008
2016-12-09T09:45:10.855Z,1060
2016-12-09T09:46:41.738Z,996
2016-12-09T09:48:13.409Z,1140
2016-12-09T09:49:44.719Z,1228
2016-12-09T09:51:15.891Z,1320
2016-12-09T09:52:47.418Z,1320
2016-12-09T09:54:18.511Z,1244
2016-12-09T09:55:30.391Z,1204
2016-12-09T09:57:01.286Z,948
2016-12-09T09:58:32.295Z,936
2016-12-09T10:00:03.831Z,1052
2016-12-09T10:01:34.843Z,1064
2016-12-09T10:03:05.953Z,956
2016-12-09T10:04:37.179Z,916
2016-12-09T10:05:49.352Z,956
2016-12-09T10:07:20.480Z,1056
2016-12-09T10:08:51.433Z,884
2016-12-09T10:10:23.218Z,876
2016-12-09T10:11:54.698Z,828
2016-12-09T10:13:25.985Z,840
2016-12-09T10:14:37.848Z,804
2016-12-09T10:16:08.881Z,840
2016-12-09T10:17:40.055Z,836
2016-12-09T10:19:11.000Z,872
2016-12-09T10:20:42.010Z,908
2016-12-09T10:22:13.140Z,992
2016-12-09T10:23:44.361Z,1012
2016-12-09T10:24:56.311Z,1040
2016-12-09T10:26:27.306Z,1100
2016-12-09T10:28:00.544Z,1296
2016-12-09T10:29:31.775Z,1360
2016-12-09T10:31:02.820Z,1348
2016-12-09T10:32:33.995Z,1368
2016-12-09T10:34:05.138Z,1332
2016-12-09T10:35:17.312Z,1264
2016-12-09T10:37:15.682Z,920
2016-12-09T10:38:46.396Z,920
2016-12-09T10:40:17.621Z,968
2016-12-09T10:41:29.410Z,976
2016-12-09T10:43:00.347Z,1016
2016-12-09T10:44:31.439Z,988
2016-12-09T10:46:02.905Z,1100
2016-12-09T10:47:33.893Z,1236
2016-12-09T10:49:04.893Z,1184
2016-12-09T10:50:16.760Z,1132
2016-12-09T10:51:47.636Z,1280
2016-12-09T10:53:19.157Z,1356
2016-12-09T10:54:50.064Z,1340
2016-12-09T10:56:20.793Z,1532
2016-12-09T10:57:51.725Z,1568
2016-12-09T10:59:03.396Z,1524
2016-12-09T11:00:34.506Z,1384
2016-12-09T11:02:00.692Z,1268
2016-12-09T11:03:31.652Z,1192
2016-12-09T11:04:44.142Z,1056
2016-12-09T11:06:15.150Z,1040
2016-12-09T11:07:41.363Z,1052
2016-12-09T11:09:12.745Z,1056
2016-12-09T11:10:25.060Z,1108
2016-12-09T11:11:56.630Z,1180
2016-12-09T11:13:28.231Z,1196
2016-12-09T11:14:59.830Z,1212
2016-12-09T11:16:31.632Z,1080
2016-12-09T11:18:03.402Z,1004
2016-12-09T11:19:41.475Z,1104
2016-12-09T11:21:13.397Z,1224
2016-12-09T11:22:44.779Z,1296
2016-12-09T11:23:56.597Z,1324
2016-12-09T11:25:28.228Z,1360
2016-12-09T11:26:59.745Z,1344
2016-12-09T11:28:31.351Z,1320
2016-12-09T11:30:02.637Z,1408
2016-12-09T11:31:33.374Z,1500
2016-12-09T11:33:04.523Z,1396
2016-12-09T11:34:16.260Z,1160
2016-12-09T11:35:47.182Z,1132
2016-12-09T11:37:18.138Z,1212
2016-12-09T11:38:49.610Z,1304
2016-12-09T11:40:20.339Z,1488
2016-12-09T11:41:51.240Z,1556
2016-12-09T11:43:03.330Z,1360
2016-12-09T11:44:34.269Z,1188
2016-12-09T11:46:05.515Z,1032
2016-12-09T11:47:37.071Z,952
2016-12-09T11:49:07.815Z,868
2016-12-09T11:50:39.068Z,788
2016-12-09T11:52:11.510Z,876
2016-12-09T11:53:23.275Z,888
2016-12-09T11:54:54.742Z,972
2016-12-09T11:56:26.035Z,1060
2016-12-09T11:57:57.276Z,1072
2016-12-09T11:59:30.506Z,1004
2016-12-09T12:01:02.865Z,940
2016-12-09T12:02:34.976Z,980
2016-12-09T12:04:06.325Z,1040
2016-12-09T12:05:37.744Z,1028
2016-12-09T12:06:49.715Z,1000
2016-12-09T12:08:20.661Z,968
2016-12-09T12:09:52.047Z,956
2016-12-09T12:11:24.212Z,940
2016-12-09T12:12:55.082Z,932
2016-12-09T12:14:07.849Z,872
2016-12-09T12:15:34.873Z,800
2016-12-09T12:17:06.427Z,792
2016-12-09T12:18:38.297Z,784
2016-12-09T12:20:10.065Z,728
2016-12-09T12:21:22.017Z,768
2016-12-09T12:22:53.079Z,756
2016-12-09T12:24:19.099Z,740
2016-12-09T12:25:30.623Z,788
2016-12-09T12:27:01.566Z,848
2016-12-09T12:28:32.773Z,844
2016-12-09T12:30:04.203Z,800
2016-12-09T12:31:35.009Z,780
2016-12-09T12:33:06.690Z,752
2016-12-09T12:34:38.104Z,752
2016-12-09T12:35:49.929Z,780
2016-12-09T12:37:21.018Z,756
2016-12-09T12:38:52.125Z,704
2016-12-09T12:40:23.409Z,652
2016-12-09T12:41:54.286Z,680
2016-12-09T12:43:25.214Z,696
2016-12-09T12:44:37.112Z,680
2016-12-09T12:46:08.684Z,712
2016-12-09T12:47:39.681Z,760
2016-12-09T12:49:10.798Z,856
2016-12-09T12:50:42.112Z,844
2016-12-09T12:52:07.989Z,796
2016-12-09T12:53:19.781Z,756
2016-12-09T12:54:52.174Z,708
2016-12-09T12:56:23.941Z,744
2016-12-09T12:57:55.155Z,720
2016-12-09T12:59:26.686Z,712
2016-12-09T13:00:58.401Z,680
2016-12-09T13:02:10.093Z,632
2016-12-09T13:03:41.089Z,596
2016-12-09T13:05:12.640Z,628
2016-12-09T13:06:44.926Z,668
2016-12-09T13:08:16.306Z,576
2016-12-09T13:09:47.304Z,540
2016-12-09T13:11:18.256Z,448
2016-12-09T13:12:30.288Z,368
2016-12-09T13:14:01.638Z,344
2016-12-09T13:15:32.976Z,352
2016-12-09T13:17:04.064Z,356
2016-12-09T13:18:35.099Z,440
2016-12-09T13:20:06.380Z,512
2016-12-09T13:22:13.269Z,604
2016-12-09T13:23:44.092Z,652
2016-12-09T13:25:15.063Z,688
2016-12-09T13:26:26.764Z,728
2016-12-09T13:27:57.685Z,768
2016-12-09T13:29:29.195Z,780
2016-12-09T13:31:02.580Z,836
2016-12-09T13:32:28.436Z,888
2016-12-09T13:33:40.226Z,836
2016-12-09T13:35:06.633Z,780
2016-12-09T13:36:20.292Z,708
2016-12-09T13:37:52.273Z,680
2016-12-09T13:39:25.249Z,684
2016-12-09T13:40:57.083Z,724
2016-12-09T13:42:09.087Z,700
2016-12-09T13:43:41.138Z,740
2016-12-09T13:45:12.467Z,688
2016-12-09T13:46:43.984Z,664
2016-12-09T13:48:15.430Z,704
2016-12-09T13:49:46.745Z,708
2016-12-09T13:51:18.462Z,692
2016-12-09T13:52:50.100Z,672
2016-12-09T13:54:02.601Z,636
2016-12-09T13:55:33.814Z,628
2016-12-09T13:57:04.863Z,508
2016-12-09T13:58:36.293Z,548
2016-12-09T14:00:09.124Z,596
2016-12-09T14:01:41.010Z,640
2016-12-09T14:03:13.100Z,660
2016-12-09T14:04:44.353Z,636
2016-12-09T14:06:15.901Z,640
2016-12-09T14:07:27.991Z,632
2016-12-09T14:08:59.668Z,592
2016-12-09T14:10:31.013Z,592
2016-12-09T14:12:02.049Z,572
2016-12-09T14:13:33.294Z,520
2016-12-09T14:15:05.727Z,508
2016-12-09T14:16:36.811Z,532
2016-12-09T14:18:07.890Z,576
2016-12-09T14:19:19.986Z,592
2016-12-09T14:20:51.173Z,572
2016-12-09T14:22:22.754Z,564
2016-12-09T14:23:53.788Z,528
2016-12-09T14:25:24.638Z,396
2016-12-09T14:26:57.675Z,372
2016-12-09T14:28:29.008Z,380
2016-12-09T14:30:00.984Z,408
2016-12-09T14:31:12.673Z,400
2016-12-09T14:32:43.602Z,380
2016-12-09T14:34:14.722Z,380
2016-12-09T14:35:46.133Z,392
2016-12-09T14:37:17.123Z,388
2016-12-09T14:38:47.977Z,392
2016-12-09T14:39:59.633Z,368
2016-12-09T14:41:31.790Z,344
2016-12-09T14:43:03.027Z,344
2016-12-09T14:44:34.310Z,356
2016-12-09T14:46:05.036Z,348
2016-12-09T14:47:36.158Z,336
2016-12-09T14:48:47.796Z,304
2016-12-09T14:50:18.884Z,292
2016-12-09T14:51:44.909Z,288
2016-12-09T14:53:15.948Z,280
2016-12-09T14:54:48.931Z,272
2016-12-09T14:56:01.019Z,256
2016-12-09T14:57:32.333Z,236
2016-12-09T14:59:03.435Z,232
2016-12-09T15:00:34.301Z,240
2016-12-09T15:02:07.804Z,252
2016-12-09T15:06:46.378Z,252
2016-12-09T15:08:17.370Z,224
2016-12-09T15:09:48.360Z,208
2016-12-09T15:11:00.203Z,192
2016-12-09T15:12:31.127Z,180
2016-12-09T15:14:01.884Z,168
2016-12-09T15:15:33.080Z,156
2016-12-09T15:16:45.485Z,132
2016-12-09T15:18:17.415Z,116
2016-12-09T15:19:48.615Z,92
2016-12-09T15:21:45.077Z,72
2016-12-09T15:22:56.846Z,56
2016-12-09T15:24:27.991Z,48
2016-12-09T15:25:59.010Z,44
2016-12-09T15:27:30.027Z,40
2016-12-09T15:29:01.230Z,40
2016-12-09T15:30:32.542Z,32
2016-12-09T15:31:44.434Z,32
2016-12-09T15:33:10.535Z,28
2016-12-09T15:34:41.404Z,20
2016-12-09T15:36:12.471Z,20
2016-12-09T15:37:24.721Z,16
2016-12-09T15:38:55.618Z,12
2016-12-09T15:40:26.591Z,8
2016-12-09T15:41:59.519Z,8
2016-12-09T15:43:30.696Z,8
2016-12-09T15:45:02.566Z,4
2016-12-09T15:46:34.953Z,4
2016-12-09T15:48:06.033Z,4
2016-12-09T15:49:18.201Z,0
2016-12-09T15:50:45.789Z,4
2016-12-09T15:52:18.064Z,0
2016-12-09T15:53:51.715Z,0
2016-12-09T15:55:24.935Z,0
2016-12-09T15:58:03.464Z,0
2016-12-09T15:59:35.041Z,0
2016-12-09T16:01:06.428Z,0
2016-12-09T16:02:37.687Z,0
2016-12-09T16:03:50.385Z,0
2016-12-09T16:05:21.882Z,0
2016-12-09T16:06:52.999Z,0
2016-12-09T16:08:24.352Z,0
2016-12-09T16:09:55.494Z,0
2016-12-09T16:11:27.858Z,0
2016-12-09T16:12:58.993Z,0
2016-12-09T16:14:10.887Z,0
2016-12-09T16:15:42.022Z,0
2016-12-09T16:17:14.624Z,0
2016-12-09T16:18:40.992Z,0
2016-12-09T16:20:12.084Z,0
2016-12-09T16:21:23.823Z,0
2016-12-09T16:22:54.917Z,0
2016-12-09T16:24:25.826Z,0
2016-12-09T16:25:56.717Z,0
2016-12-09T16:27:27.891Z,0
2016-12-09T16:28:59.347Z,0
2016-12-09T16:30:11.651Z,0
2016-12-09T16:31:43.091Z,0
2016-12-09T16:33:16.893Z,0
2016-12-09T16:34:48.501Z,0
2016-12-09T16:36:19.866Z,0
2016-12-09T16:37:51.496Z,0
2016-12-09T16:39:18.431Z,0
2016-12-09T16:40:31.445Z,0
2016-12-09T16:42:02.903Z,0
2016-12-09T16:43:34.169Z,0
2016-12-09T16:45:05.236Z,0
2016-12-09T16:46:37.243Z,0
2016-12-09T16:48:11.886Z,0
2016-12-09T16:49:45.091Z,0
2016-12-09T16:51:17.071Z,0
2016-12-09T16:52:48.379Z,0
2016-12-09T16:54:19.827Z,0
2016-12-09T16:55:51.597Z,0
2016-12-09T16:57:03.494Z,0
2016-12-09T16:58:35.105Z,0
2016-12-09T17:00:06.717Z,0
2016-12-09T17:03:11.217Z,0
2016-12-09T17:04:43.675Z,0
2016-12-09T17:06:14.674Z,0
2016-12-09T17:07:45.631Z,0
2016-12-09T17:09:17.804Z,0
2016-12-09T17:10:29.916Z,0
2016-12-09T17:12:01.916Z,0
2016-12-09T17:13:59.153Z,0
2016-12-09T17:15:25.385Z,0
2016-12-09T17:16:37.078Z,0
2016-12-09T17:18:08.022Z,0
2016-12-09T17:19:39.817Z,0
2016-12-09T17:21:11.427Z,0
2016-12-09T17:22:42.723Z,0
2016-12-09T17:23:55.127Z,0
2016-12-09T17:25:26.072Z,0
2016-12-09T17:26:57.371Z,0
2016-12-09T17:28:29.968Z,0
2016-12-09T17:30:01.146Z,0
2016-12-09T17:31:34.008Z,0
2016-12-09T17:33:05.088Z,0
2016-12-09T17:34:36.290Z,0
2016-12-09T17:35:48.335Z,0
2016-12-09T17:37:19.293Z,0
2016-12-09T17:38:50.546Z,0
2016-12-09T17:40:21.652Z,0
2016-12-09T17:41:53.106Z,0
2016-12-09T17:43:25.184Z,0
2016-12-09T17:44:57.446Z,0
2016-12-09T17:46:28.818Z,0
2016-12-09T17:48:01.859Z,0
2016-12-09T17:49:14.206Z,0
2016-12-09T17:50:46.073Z,0
2016-12-09T17:52:17.873Z,0
2016-12-09T17:53:50.136Z,0
2016-12-09T17:55:21.175Z,0
2016-12-09T17:56:52.590Z,0
2016-12-09T17:58:24.523Z,0
2016-12-09T17:59:51.418Z,0
2016-12-09T18:01:03.291Z,0
2016-12-09T18:02:35.057Z,0
2016-12-09T18:04:01.820Z,0
2016-12-09T18:05:35.591Z,0
2016-12-09T18:06:48.091Z,0
2016-12-09T18:08:19.126Z,0
2016-12-09T18:09:50.315Z,0
2016-12-09T18:11:21.705Z,0
2016-12-09T18:12:52.958Z,0
2016-12-09T18:14:23.940Z,0
2016-12-09T18:15:35.679Z,0
2016-12-09T18:17:06.666Z,0
2016-12-09T18:18:38.036Z,0
2016-12-09T18:20:09.331Z,0
2016-12-09T18:21:40.862Z,0
2016-12-09T18:23:11.813Z,0
2016-12-09T18:24:43.249Z,0
2016-12-09T18:25:55.042Z,0
2016-12-09T18:27:26.118Z,0
2016-12-09T18:28:57.463Z,0
2016-12-09T18:30:28.610Z,0
2016-12-09T18:32:00.382Z,0
2016-12-09T18:33:26.925Z,0
2016-12-09T18:34:38.771Z,0
2016-12-09T18:36:10.670Z,0
2016-12-09T18:37:43.969Z,0
2016-12-09T18:39:45.329Z,0
2016-12-09T18:41:11.259Z,0
2016-12-09T18:42:23.194Z,0
2016-12-09T18:43:55.449Z,0
2016-12-09T18:45:26.893Z,0
2016-12-09T18:46:58.147Z,0
2016-12-09T18:48:30.126Z,0
2016-12-09T18:50:02.180Z,0
2016-12-09T18:51:14.324Z,0
2016-12-09T18:52:46.430Z,0
2016-12-09T18:54:17.549Z,0
2016-12-09T18:55:48.944Z,0
2016-12-09T18:57:14.840Z,0
2016-12-09T18:58:26.864Z,0
2016-12-09T18:59:58.730Z,0
2016-12-09T19:01:29.698Z,0
2016-12-09T19:03:00.872Z,0
2016-12-09T19:04:32.156Z,0
2016-12-09T19:06:03.603Z,0
2016-12-09T19:07:15.368Z,0
2016-12-09T19:08:46.563Z,0
2016-12-09T19:10:12.913Z,0
2016-12-09T19:11:44.299Z,0
2016-12-09T19:12:56.768Z,0
2016-12-09T19:14:27.922Z,0
2016-12-09T19:15:59.152Z,0
2016-12-09T19:17:31.345Z,0
2016-12-09T19:19:02.985Z,0
2016-12-09T19:20:34.600Z,0
2016-12-09T19:22:06.357Z,0
2016-12-09T19:23:37.971Z,0
2016-12-09T19:24:50.169Z,0
2016-12-09T19:26:16.173Z,0
2016-12-09T19:27:47.618Z,0
2016-12-09T19:29:18.508Z,0
2016-12-09T19:30:30.629Z,0
2016-12-09T19:32:02.373Z,0
2016-12-09T19:33:33.351Z,0
2016-12-09T19:35:04.663Z,0
2016-12-09T19:36:37.910Z,0
2016-12-09T19:38:03.747Z,0
2016-12-09T19:39:15.496Z,0
2016-12-09T19:40:46.474Z,0
2016-12-09T19:42:17.285Z,0
2016-12-09T19:43:48.615Z,0
2016-12-09T19:45:19.658Z,0
2016-12-09T19:46:31.707Z,0
2016-12-09T19:48:03.217Z,0
2016-12-09T19:49:34.409Z,0
2016-12-09T19:51:06.139Z,0
2016-12-09T19:52:39.107Z,0
2016-12-09T19:54:11.381Z,0
2016-12-09T19:55:43.295Z,0
2016-12-09T19:57:14.444Z,0
2016-12-09T19:58:45.890Z,0
2016-12-09T19:59:58.151Z,0
2016-12-09T20:01:29.218Z,0
2016-12-09T20:03:00.472Z,0
2016-12-09T20:04:31.950Z,0
2016-12-09T20:06:03.725Z,0
2016-12-09T20:07:34.964Z,0
2016-12-09T20:09:06.657Z,0
2016-12-09T20:10:37.938Z,0
2016-12-09T20:11:49.777Z,0
2016-12-09T20:13:21.327Z,0
2016-12-09T20:14:52.528Z,0
2016-12-09T20:16:24.336Z,0
2016-12-09T20:17:55.068Z,0
2016-12-09T20:19:10.282Z,0
2016-12-09T20:20:41.530Z,0
2016-12-09T20:22:13.341Z,0
2016-12-09T20:23:44.843Z,0
2016-12-09T20:25:12.389Z,0
2016-12-09T20:26:25.074Z,0
2016-12-09T20:27:56.186Z,0
2016-12-09T20:29:27.291Z,0
2016-12-09T20:30:59.614Z,0
2016-12-09T20:32:31.415Z,0
2016-12-09T20:34:03.057Z,0
2016-12-09T20:35:35.385Z,0
2016-12-09T20:37:08.266Z,0
2016-12-09T20:38:39.635Z,0
2016-12-09T20:40:11.640Z,0
2016-12-09T20:41:24.058Z,0
2016-12-09T20:42:57.764Z,0
2016-12-09T20:44:24.201Z,0
2016-12-09T20:45:55.758Z,0
2016-12-09T20:47:27.216Z,0
2016-12-09T20:48:59.056Z,0
2016-12-09T20:50:10.931Z,0
2016-12-09T20:51:42.166Z,0
2016-12-09T20:53:08.409Z,0
2016-12-09T20:54:19.978Z,0
2016-12-09T20:55:51.570Z,0
2016-12-09T20:57:22.626Z,0
2016-12-09T20:58:53.865Z,0
2016-12-09T21:00:19.743Z,0
2016-12-09T21:01:31.984Z,0
2016-12-09T21:03:03.538Z,0
2016-12-09T21:04:34.485Z,0
2016-12-09T21:06:05.499Z,0
2016-12-09T21:07:39.135Z,0
2016-12-09T21:09:10.087Z,0
2016-12-09T21:10:42.060Z,0
2016-12-09T21:11:53.847Z,0
2016-12-09T21:13:25.499Z,0
2016-12-09T21:14:56.572Z,0
2016-12-09T21:16:27.596Z,0
2016-12-09T21:17:54.092Z,0
2016-12-09T21:19:06.327Z,0
2016-12-09T21:20:37.230Z,0
2016-12-09T21:22:08.444Z,0